Stone Mountain, GA (30086)

2:29 AM EDT on August 31, 2014 (GMT -0400)
Annistown Valley | Change Station
CLOSE
Current Station
Personal Weather Station
Location: Snellville, GA
Elevation: 942 ft
Nearby Weather Stations

Elev 942 ft 33.81 °N, 84.06 °W | Updated 9 minutes ago

Partly Cloudy
Partly Cloudy
71.5 °F
Feels Like 71.5 °F
N
0.0
Wind Variable Wind from SE
Gusts 0.0 mph

Today
High -- | Low -- °F
--% Chance of Precip.
Yesterday
High -- | Low -- °F
Precip. -- in
7:09 AM 8:03 PM
Waxing Crescent, 28% visible
Pressure 30.11 in
Visibility 10.0 miles
Clouds Few 8000 ft
Dew Point 71 °F
Humidity 97%
Rainfall 0.05 in
Snow Depth Not available.
UV 0 out of 12
Pollen 8.30 out of 12
Air Quality Not available.
Flu Activity Not available.
METAR KPDK 310553Z AUTO 00000KT 10SM FEW080 22/21 A3016 RMK AO2 SLP194 60002 T02220206 10256 20222 50002

More Conditions Fewer Conditions

Pressure 30.11 in
Visibility 10.0 miles
Clouds Few 8000 ft
Dew Point 71 °F
Humidity 97%
Rainfall 0.05 in
Snow Depth Not available.
UV 0 out of 12
Pollen 8.30 out of 12
Air Quality Not available.
Flu Activity Not available.
METAR KPDK 310553Z AUTO 00000KT 10SM FEW080 22/21 A3016 RMK AO2 SLP194 60002 T02220206 10256 20222 50002

More Conditions Fewer Conditions

10-Day Weather Forecast

Almanac

Astronomy

Aug. 31, 2014 Rise Set
Actual Time 7:09 AM EDT 8:03 PM EDT
Civil Twilight 6:44 AM EDT 8:28 PM EDT
Nautical Twilight 6:13 AM EDT 8:58 PM EDT
Astronomical Twilight 5:42 AM EDT 9:29 PM EDT
Moon 12:37 PM EDT 11:35 PM EDT
Length of Visible Light 13h 44m
Length of Day
12h 53m
Tomorrow will be 2m 1s shorter.
Waxing Crescent, 28% of the Moon is Illuminated
Today
Waxing Crescent
Sep 2
First Quarter
Sep 8
Full
Sep 15
Last Quarter
Sep 24
New

Today's Extremes

State Highs State Lows

Community

WunderPhotos

Upload Photos

1,748,801 photos uploaded!

Nearby

Air Quality

  Air Quality AQ Index Pollutant
Sunday Moderate
OZONE
Sunday Moderate
PM2.5

Snow Depth

Station Depth Elevation
No new snow has been reported.

Earthquake Activity

City Distance Mag. Time & Date
No recent earthquake activity has been reported nearby.
Minimum magnitude displayed is 2.5.

Coastal Water Temperatures

Place Temperature
No Stations Reporting

Nearby Weather Stations